Columbus, Ohio
Traffic Map
Current Weather Conditions
Columbus, Ohio
Clear
Clear
11°
Feels Like: 11°
Wind Chill: 11° Ceiling: Unl
Heat Index: 11° Visibility: 10mi
Dew Point: Wind: 3mph
Humidity: 66% Direction: 90° (E)
Pressure: 30.08in Gusts: 0mph
Raw Report DataKCMH 210651Z 09003KT 10SM CLR 11/05 A3008 RMK AO2 SLP183 T01110050
Traffic Incident Summary
Active as of:
Severity:
Category:
InformationThere was an issue retrieving the traffic information for this location. Please try a different location or try again shortly.
Advertisements
At Last! Intellicast now available for iPhone and Android